createdAt,value
2018-01-17T00:00:52.992Z,80.83
2018-01-17T00:01:52.979Z,80.55
2018-01-17T00:02:52.960Z,80.17
2018-01-17T00:03:52.956Z,80.45
2018-01-17T00:04:52.937Z,80.45
2018-01-17T00:05:52.928Z,80.93
2018-01-17T00:06:52.924Z,80.83
2018-01-17T00:07:52.902Z,80.93
2018-01-17T00:08:52.892Z,81.12
2018-01-17T00:09:52.874Z,81.21
2018-01-17T00:10:52.863Z,80.93
2018-01-17T00:11:52.849Z,80.93
2018-01-17T00:12:52.838Z,81.02
2018-01-17T00:13:52.826Z,80.93
2018-01-17T00:14:52.865Z,81.12
2018-01-17T00:15:52.804Z,81.40
2018-01-17T00:16:52.787Z,81.02
2018-01-17T00:17:52.777Z,81.40
2018-01-17T00:18:52.762Z,81.68
2018-01-17T00:19:52.746Z,81.68
2018-01-17T00:20:52.734Z,81.12
2018-01-17T00:21:52.720Z,81.59
2018-01-17T00:22:52.710Z,81.77
2018-01-17T00:23:52.696Z,81.59
2018-01-17T00:24:52.680Z,81.49
2018-01-17T00:25:52.671Z,81.77
2018-01-17T00:26:52.654Z,81.40
2018-01-17T00:27:52.642Z,81.07
2018-01-17T00:28:52.653Z,81.26
2018-01-17T00:29:52.616Z,81.12
2018-01-17T00:30:52.606Z,81.30
2018-01-17T00:31:52.592Z,81.12
2018-01-17T00:32:52.580Z,81.77
2018-01-17T00:33:52.567Z,81.49
2018-01-17T00:34:52.550Z,81.55
2018-01-17T00:35:52.546Z,81.59
2018-01-17T00:36:52.528Z,81.59
2018-01-17T00:37:52.522Z,81.87
2018-01-17T00:38:52.513Z,81.87
2018-01-17T00:39:52.490Z,81.59
2018-01-17T00:40:52.483Z,82.34
2018-01-17T00:41:52.464Z,82.21
2018-01-17T00:42:52.452Z,82.15
2018-01-17T00:43:52.439Z,82.44
2018-01-17T00:44:52.424Z,82.34
2018-01-17T00:45:52.418Z,82.25
2018-01-17T00:46:52.401Z,82.53
2018-01-17T00:47:52.390Z,82.44
2018-01-17T00:48:52.369Z,82.82
2018-01-17T00:49:52.362Z,82.91
2018-01-17T00:50:52.348Z,82.91
2018-01-17T00:51:52.337Z,83.10
2018-01-17T00:52:52.327Z,83.10
2018-01-17T00:53:52.316Z,82.82
2018-01-17T00:54:52.294Z,82.82
2018-01-17T00:55:52.282Z,82.34
2018-01-17T00:56:52.265Z,82.63
2018-01-17T00:57:52.257Z,82.63
2018-01-17T00:58:52.241Z,82.91
2018-01-17T00:59:52.229Z,82.82
2018-01-17T01:00:52.216Z,82.91
2018-01-17T01:01:52.203Z,82.82
2018-01-17T01:02:52.191Z,82.53
2018-01-17T01:03:52.188Z,82.44
2018-01-17T01:04:52.187Z,82.63
2018-01-17T01:05:52.149Z,82.15
2018-01-17T01:06:52.139Z,81.96
2018-01-17T01:07:52.128Z,82.34
2018-01-17T01:08:52.113Z,82.25
2018-01-17T01:09:52.108Z,81.49
2018-01-17T01:10:52.088Z,81.77
2018-01-17T01:11:52.074Z,81.77
2018-01-17T01:12:52.062Z,81.77
2018-01-17T01:13:52.047Z,82.06
2018-01-17T01:14:52.034Z,81.49
2018-01-17T01:15:52.022Z,81.93
2018-01-17T01:16:52.010Z,81.59
2018-01-17T01:17:52.000Z,81.59
2018-01-17T01:18:51.983Z,81.30
2018-01-17T01:19:51.991Z,81.59
2018-01-17T01:20:51.959Z,81.12
2018-01-17T01:21:51.948Z,81.02
2018-01-17T01:22:51.936Z,81.40
2018-01-17T01:23:51.926Z,81.02
2018-01-17T01:24:51.933Z,81.21
2018-01-17T01:25:51.915Z,81.30
2018-01-17T01:26:51.889Z,81.21
2018-01-17T01:27:51.872Z,80.74
2018-01-17T01:28:51.858Z,80.93
2018-01-17T01:29:51.844Z,81.21
2018-01-17T01:30:51.868Z,80.74
2018-01-17T01:31:51.821Z,80.55
2018-01-17T01:32:51.807Z,80.45
2018-01-17T01:33:51.792Z,80.45
2018-01-17T01:34:51.780Z,80.36
2018-01-17T01:35:51.775Z,80.45
2018-01-17T01:36:51.754Z,80.45
2018-01-17T01:37:51.748Z,80.45
2018-01-17T01:38:51.731Z,80.45
2018-01-17T01:39:51.719Z,81.30
2018-01-17T01:40:51.705Z,81.30
2018-01-17T01:41:51.694Z,80.36
2018-01-17T01:42:51.681Z,80.64
2018-01-17T01:43:51.665Z,79.98
2018-01-17T01:44:51.654Z,80.55
2018-01-17T01:45:51.642Z,80.55
2018-01-17T01:46:51.630Z,80.64
2018-01-17T01:47:51.623Z,80.45
2018-01-17T01:48:51.605Z,80.55
2018-01-17T01:49:51.600Z,81.02
2018-01-17T01:50:51.576Z,80.07
2018-01-17T01:51:51.568Z,80.45
2018-01-17T01:52:51.555Z,80.26
2018-01-17T01:53:51.544Z,80.36
2018-01-17T01:54:51.530Z,80.45
2018-01-17T01:55:51.521Z,80.45
2018-01-17T01:56:51.513Z,80.26
2018-01-17T01:57:51.496Z,80.45
2018-01-17T01:58:51.481Z,80.36
2018-01-17T01:59:51.469Z,81.02
2018-01-17T02:00:51.456Z,80.74
2018-01-17T02:01:51.445Z,80.74
2018-01-17T02:02:51.433Z,80.83
2018-01-17T02:03:51.413Z,80.64
2018-01-17T02:04:51.404Z,81.12
2018-01-17T02:05:51.429Z,81.21
2018-01-17T02:06:51.395Z,80.83
2018-01-17T02:07:51.366Z,81.12
2018-01-17T02:08:51.373Z,80.93
2018-01-17T02:09:51.343Z,80.74
2018-01-17T02:10:51.330Z,80.64
2018-01-17T02:11:51.315Z,81.02
2018-01-17T02:12:51.304Z,80.79
2018-01-17T02:13:51.302Z,80.79
2018-01-17T02:14:51.286Z,80.98
2018-01-17T02:15:51.266Z,80.79
2018-01-17T02:16:51.255Z,80.69
2018-01-17T02:17:51.241Z,80.79
2018-01-17T02:18:51.227Z,80.88
2018-01-17T02:19:51.218Z,80.60
2018-01-17T02:20:51.202Z,80.69
2018-01-17T02:21:51.188Z,80.88
2018-01-17T02:22:51.176Z,80.88
2018-01-17T02:23:51.164Z,80.88
2018-01-17T02:24:51.164Z,80.98
2018-01-17T02:25:51.141Z,80.98
2018-01-17T02:26:51.128Z,80.22
2018-01-17T02:27:51.117Z,80.32
2018-01-17T02:28:51.097Z,80.22
2018-01-17T02:29:51.091Z,80.32
2018-01-17T02:30:51.074Z,80.41
2018-01-17T02:31:51.060Z,81.07
2018-01-17T02:32:51.045Z,80.22
2018-01-17T02:33:51.042Z,80.41
2018-01-17T02:34:51.024Z,80.13
2018-01-17T02:35:51.011Z,81.26
2018-01-17T02:36:51.001Z,80.41
2018-01-17T02:37:50.987Z,81.07
2018-01-17T02:38:50.971Z,80.41
2018-01-17T02:39:50.963Z,80.79
2018-01-17T02:40:50.944Z,80.22
2018-01-17T02:41:50.939Z,80.88
2018-01-17T02:42:50.922Z,80.98
2018-01-17T02:43:50.909Z,80.98
2018-01-17T02:44:50.892Z,80.98
2018-01-17T02:45:50.883Z,80.69
2018-01-17T02:46:50.880Z,80.79
2018-01-17T02:47:50.858Z,80.79
2018-01-17T02:48:50.846Z,81.07
2018-01-17T02:49:50.832Z,80.88
2018-01-17T02:50:50.819Z,80.79
2018-01-17T02:51:50.808Z,80.60
2018-01-17T02:52:50.791Z,80.88
2018-01-17T02:53:50.781Z,80.69
2018-01-17T02:54:50.769Z,80.69
2018-01-17T02:55:50.758Z,80.98
2018-01-17T02:56:50.742Z,81.36
2018-01-17T02:57:50.736Z,81.36
2018-01-17T02:58:50.717Z,81.07
2018-01-17T02:59:50.703Z,81.36
2018-01-17T03:00:50.689Z,80.98
2018-01-17T03:01:50.677Z,81.07
2018-01-17T03:02:50.667Z,81.17
2018-01-17T03:03:50.653Z,81.07
2018-01-17T03:04:50.637Z,81.45
2018-01-17T03:05:50.628Z,81.26
2018-01-17T03:06:50.613Z,81.26
2018-01-17T03:07:50.601Z,81.17
2018-01-17T03:08:50.586Z,81.07
2018-01-17T03:09:50.577Z,81.64
2018-01-17T03:10:50.569Z,81.55
2018-01-17T03:11:50.550Z,81.64
2018-01-17T03:12:50.536Z,81.74
2018-01-17T03:13:50.523Z,81.55
2018-01-17T03:14:50.520Z,81.74
2018-01-17T03:15:50.499Z,81.55
2018-01-17T03:16:50.485Z,81.93
2018-01-17T03:17:50.470Z,81.74
2018-01-17T03:18:50.459Z,81.83
2018-01-17T03:19:50.448Z,81.74
2018-01-17T03:20:50.437Z,81.83
2018-01-17T03:21:50.416Z,81.83
2018-01-17T03:22:50.417Z,81.74
2018-01-17T03:23:50.393Z,81.74
2018-01-17T03:24:50.383Z,81.93
2018-01-17T03:25:50.367Z,81.55
2018-01-17T03:26:50.355Z,81.55
2018-01-17T03:27:50.377Z,81.93
2018-01-17T03:28:50.334Z,81.83
2018-01-17T03:29:50.313Z,81.74
2018-01-17T03:30:50.301Z,81.83
2018-01-17T03:31:50.294Z,81.74
2018-01-17T03:32:50.280Z,81.74
2018-01-17T03:33:50.268Z,81.83
2018-01-17T03:34:50.251Z,81.74
2018-01-17T03:35:50.234Z,81.74
2018-01-17T03:36:50.223Z,81.74
2018-01-17T03:37:50.218Z,81.83
2018-01-17T03:38:50.200Z,81.74
2018-01-17T03:39:50.187Z,81.93
2018-01-17T03:40:50.173Z,81.93
2018-01-17T03:41:50.158Z,81.64
2018-01-17T03:42:50.150Z,81.93
2018-01-17T03:43:50.135Z,81.83
2018-01-17T03:44:50.119Z,81.93
2018-01-17T03:45:50.108Z,81.83
2018-01-17T03:46:50.097Z,81.93
2018-01-17T03:47:50.084Z,81.93
2018-01-17T03:48:50.064Z,81.74
2018-01-17T03:49:50.055Z,81.93
2018-01-17T03:50:50.044Z,81.74
2018-01-17T03:51:50.028Z,81.74
2018-01-17T03:52:50.012Z,81.83
2018-01-17T03:53:50.003Z,81.74
2018-01-17T03:54:49.993Z,81.83
2018-01-17T03:55:49.981Z,81.74
2018-01-17T03:56:49.958Z,81.74
2018-01-17T03:57:49.953Z,81.74
2018-01-17T03:58:49.933Z,81.74
2018-01-17T03:59:49.933Z,81.74
2018-01-17T04:00:49.916Z,81.45
2018-01-17T04:01:49.896Z,81.64
2018-01-17T04:02:49.898Z,81.55
2018-01-17T04:03:49.874Z,81.55
2018-01-17T04:04:49.861Z,81.64
2018-01-17T04:05:49.847Z,82.21
2018-01-17T04:06:49.832Z,82.21
2018-01-17T04:07:49.820Z,82.31
2018-01-17T04:08:49.809Z,82.21
2018-01-17T04:09:49.791Z,82.40
2018-01-17T04:10:49.786Z,82.21
2018-01-17T04:11:49.772Z,82.12
2018-01-17T04:12:49.756Z,82.12
2018-01-17T04:13:49.741Z,82.21
2018-01-17T04:14:49.727Z,82.02
2018-01-17T04:15:49.715Z,82.02
2018-01-17T04:16:49.702Z,82.12
2018-01-17T04:17:49.687Z,81.93
2018-01-17T04:18:49.678Z,82.12
2018-01-17T04:19:49.664Z,82.50
2018-01-17T04:20:49.651Z,82.12
2018-01-17T04:21:49.634Z,82.12
2018-01-17T04:22:49.623Z,82.12
2018-01-17T04:23:49.606Z,82.50
2018-01-17T04:24:49.598Z,82.50
2018-01-17T04:25:49.597Z,82.12
2018-01-17T04:26:49.570Z,82.50
2018-01-17T04:27:49.559Z,82.50
2018-01-17T04:28:49.547Z,82.12
2018-01-17T04:29:49.534Z,82.40
2018-01-17T04:30:49.518Z,82.40
2018-01-17T04:31:49.504Z,82.40
2018-01-17T04:32:49.493Z,82.31
2018-01-17T04:33:49.481Z,82.40
2018-01-17T04:34:49.469Z,82.31
2018-01-17T04:35:49.455Z,82.31
2018-01-17T04:36:49.440Z,82.21
2018-01-17T04:37:49.425Z,82.40
2018-01-17T04:38:49.415Z,82.40
2018-01-17T04:39:49.402Z,82.21
2018-01-17T04:40:49.389Z,82.40
2018-01-17T04:41:49.377Z,82.40
2018-01-17T04:42:49.375Z,82.31
2018-01-17T04:43:49.372Z,82.40
2018-01-17T04:44:49.334Z,82.40
2018-01-17T04:45:49.326Z,82.50
2018-01-17T04:46:49.308Z,82.59
2018-01-17T04:47:49.302Z,82.50
2018-01-17T04:48:49.283Z,82.50
2018-01-17T04:49:49.269Z,82.40
2018-01-17T04:50:49.253Z,82.12
2018-01-17T04:51:49.241Z,82.50
2018-01-17T04:52:49.231Z,82.31
2018-01-17T04:53:49.213Z,82.31
2018-01-17T04:54:49.209Z,82.31
2018-01-17T04:55:49.189Z,82.50
2018-01-17T04:56:49.175Z,82.59
2018-01-17T04:57:49.166Z,82.59
2018-01-17T04:59:24.794Z,82.50
2018-01-17T04:59:49.139Z,82.50
2018-01-17T05:00:49.119Z,82.21
2018-01-17T05:01:49.109Z,82.40
2018-01-17T05:02:49.101Z,82.50
2018-01-17T05:03:49.085Z,82.50
2018-01-17T05:04:49.071Z,82.50
2018-01-17T05:05:49.055Z,82.50
2018-01-17T05:06:49.041Z,82.59
2018-01-17T05:07:49.032Z,82.50
2018-01-17T05:08:49.017Z,82.50
2018-01-17T05:09:49.001Z,82.68
2018-01-17T05:10:48.995Z,82.12
2018-01-17T05:11:48.974Z,82.59
2018-01-17T05:12:48.958Z,82.59
2018-01-17T05:13:48.954Z,82.40
2018-01-17T05:14:48.934Z,82.50
2018-01-17T05:15:48.928Z,82.68
2018-01-17T05:16:48.911Z,82.68
2018-01-17T05:17:48.898Z,82.50
2018-01-17T05:18:48.884Z,82.59
2018-01-17T05:19:48.868Z,82.78
2018-01-17T05:20:48.858Z,82.50
2018-01-17T05:21:48.844Z,82.68
2018-01-17T05:22:48.831Z,82.59
2018-01-17T05:23:48.819Z,82.59
2018-01-17T05:24:48.803Z,82.78
2018-01-17T05:25:48.792Z,82.68
2018-01-17T05:26:48.780Z,82.97
2018-01-17T05:27:48.767Z,82.78
2018-01-17T05:28:48.750Z,82.68
2018-01-17T05:29:48.743Z,82.68
2018-01-17T05:30:48.722Z,82.68
2018-01-17T05:31:48.711Z,82.59
2018-01-17T05:32:48.706Z,82.59
2018-01-17T05:33:48.682Z,82.50
2018-01-17T05:34:48.695Z,82.59
2018-01-17T05:35:48.655Z,82.50
2018-01-17T05:36:48.645Z,82.50
2018-01-17T05:37:48.636Z,82.68
2018-01-17T05:38:48.626Z,82.50
2018-01-17T05:39:48.602Z,82.68
2018-01-17T05:40:48.594Z,82.59
2018-01-17T05:41:48.582Z,82.78
2018-01-17T05:42:48.562Z,82.59
2018-01-17T05:43:48.557Z,82.50
2018-01-17T05:44:48.538Z,82.68
2018-01-17T05:45:48.528Z,82.68
2018-01-17T05:46:48.528Z,82.68
2018-01-17T05:47:48.497Z,82.87
2018-01-17T05:48:48.483Z,82.12
2018-01-17T05:49:48.473Z,82.59
2018-01-17T05:50:48.458Z,82.50
2018-01-17T05:51:48.459Z,82.59
2018-01-17T05:52:48.432Z,82.50
2018-01-17T05:53:48.418Z,82.50
2018-01-17T05:54:48.406Z,82.59
2018-01-17T05:55:48.391Z,82.59
2018-01-17T05:56:48.381Z,82.59
2018-01-17T05:57:48.365Z,82.50
2018-01-17T05:58:48.356Z,82.40
2018-01-17T05:59:48.350Z,82.40
2018-01-17T06:00:48.324Z,82.40
2018-01-17T06:01:48.333Z,82.40
2018-01-17T06:02:48.300Z,82.21
2018-01-17T06:03:48.289Z,82.59
2018-01-17T06:04:48.276Z,82.50
2018-01-17T06:05:48.262Z,82.02
2018-01-17T06:06:48.269Z,81.93
2018-01-17T06:07:48.248Z,82.21
2018-01-17T06:08:48.221Z,82.40
2018-01-17T06:09:48.221Z,82.40
2018-01-17T06:10:48.215Z,82.12
2018-01-17T06:11:48.253Z,81.64
2018-01-17T06:12:48.177Z,81.74
2018-01-17T06:13:48.154Z,81.83
2018-01-17T06:14:48.142Z,81.74
2018-01-17T06:15:48.149Z,81.93
2018-01-17T06:16:48.140Z,81.93
2018-01-17T06:17:48.158Z,81.93
2018-01-17T06:18:48.119Z,81.64
2018-01-17T06:19:48.071Z,81.55
2018-01-17T06:20:48.066Z,81.64
2018-01-17T06:21:48.062Z,81.17
2018-01-17T06:22:48.044Z,81.36
2018-01-17T06:23:48.024Z,81.26
2018-01-17T06:24:48.017Z,81.45
2018-01-17T06:25:47.992Z,81.26
2018-01-17T06:26:47.983Z,81.36
2018-01-17T06:27:47.969Z,80.98
2018-01-17T06:28:47.980Z,81.26
2018-01-17T06:29:47.938Z,81.55
2018-01-17T06:30:48.000Z,81.17
2018-01-17T06:31:47.919Z,81.26
2018-01-17T06:32:47.928Z,81.36
2018-01-17T06:33:47.919Z,80.98
2018-01-17T06:34:47.896Z,80.69
2018-01-17T06:35:47.918Z,81.07
2018-01-17T06:36:47.854Z,80.69
2018-01-17T06:37:47.830Z,81.07
2018-01-17T06:38:47.821Z,81.07
2018-01-17T06:39:47.805Z,80.88
2018-01-17T06:40:47.794Z,81.17
2018-01-17T06:41:47.788Z,80.98
2018-01-17T06:42:47.788Z,80.13
2018-01-17T06:43:47.797Z,80.51
2018-01-17T06:44:47.741Z,80.69
2018-01-17T06:45:47.724Z,81.17
2018-01-17T06:46:47.720Z,81.07
2018-01-17T06:47:47.709Z,80.32
2018-01-17T06:48:47.687Z,81.26
2018-01-17T06:49:47.700Z,81.17
2018-01-17T06:50:47.688Z,80.41
2018-01-17T06:51:47.653Z,80.98
2018-01-17T06:52:47.643Z,80.98
2018-01-17T06:53:47.620Z,81.17
2018-01-17T06:54:47.605Z,80.41
2018-01-17T06:55:47.595Z,80.32
2018-01-17T06:56:47.580Z,80.98
2018-01-17T06:57:47.572Z,80.51
2018-01-17T06:58:47.556Z,80.32
2018-01-17T06:59:47.541Z,80.32
2018-01-17T07:00:47.527Z,81.17
2018-01-17T07:01:47.539Z,80.32
2018-01-17T07:02:47.536Z,80.41
2018-01-17T07:03:47.486Z,80.98
2018-01-17T07:04:47.480Z,80.41
2018-01-17T07:05:47.460Z,80.32
2018-01-17T07:06:47.461Z,80.98
2018-01-17T07:07:47.440Z,80.41
2018-01-17T07:08:47.437Z,81.07
2018-01-17T07:09:47.414Z,81.07
2018-01-17T07:10:47.394Z,81.36
2018-01-17T07:11:47.383Z,80.32
2018-01-17T07:12:47.382Z,81.17
2018-01-17T07:13:47.408Z,80.69
2018-01-17T07:14:47.347Z,80.32
2018-01-17T07:15:47.329Z,80.98
2018-01-17T07:16:47.322Z,81.17
2018-01-17T07:17:47.307Z,80.32
2018-01-17T07:18:47.303Z,80.98
2018-01-17T07:19:47.279Z,81.07
2018-01-17T07:20:47.268Z,81.17
2018-01-17T07:21:47.256Z,81.17
2018-01-17T07:22:47.253Z,81.07
2018-01-17T07:23:47.250Z,80.32
2018-01-17T07:24:47.213Z,80.32
2018-01-17T07:25:47.211Z,80.51
2018-01-17T07:26:47.188Z,81.26
2018-01-17T07:27:47.172Z,80.98
2018-01-17T07:28:47.161Z,80.41
2018-01-17T07:29:47.168Z,80.60
2018-01-17T07:30:47.133Z,80.60
2018-01-17T07:31:47.126Z,80.60
2018-01-17T07:32:47.103Z,81.26
2018-01-17T07:33:47.093Z,81.07
2018-01-17T07:34:47.078Z,80.60
2018-01-17T07:35:47.064Z,80.98
2018-01-17T07:36:47.052Z,80.60
2018-01-17T07:37:47.042Z,80.60
2018-01-17T07:38:47.028Z,81.36
2018-01-17T07:39:47.015Z,80.79
2018-01-17T07:40:46.999Z,80.79
2018-01-17T07:41:46.990Z,81.45
2018-01-17T07:42:46.978Z,80.98
2018-01-17T07:43:46.964Z,80.79
2018-01-17T07:44:46.946Z,81.26
2018-01-17T07:45:46.953Z,81.07
2018-01-17T07:46:46.920Z,81.17
2018-01-17T07:47:46.906Z,81.07
2018-01-17T07:48:46.897Z,81.07
2018-01-17T07:49:46.883Z,81.26
2018-01-17T07:50:46.865Z,80.60
2018-01-17T07:51:46.856Z,80.88
2018-01-17T07:52:46.865Z,80.69
2018-01-17T07:53:46.890Z,80.88
2018-01-17T07:54:46.829Z,80.69
2018-01-17T07:55:46.826Z,80.69
2018-01-17T07:56:46.815Z,81.17
2018-01-17T07:57:46.776Z,81.17
2018-01-17T07:58:46.791Z,81.26
2018-01-17T07:59:46.779Z,80.22
2018-01-17T08:00:46.740Z,80.51
2018-01-17T08:01:46.758Z,80.32
2018-01-17T08:02:46.738Z,80.60
2018-01-17T08:03:46.701Z,80.51
2018-01-17T08:04:46.685Z,80.60
2018-01-17T08:05:46.671Z,81.26
2018-01-17T08:06:46.663Z,80.41
2018-01-17T08:07:46.645Z,80.69
2018-01-17T08:08:46.633Z,81.26
2018-01-17T08:09:46.619Z,80.51
2018-01-17T08:10:46.617Z,80.41
2018-01-17T08:11:46.590Z,80.88
2018-01-17T08:12:46.588Z,80.41
2018-01-17T08:13:46.568Z,80.88
2018-01-17T08:14:46.553Z,81.26
2018-01-17T08:15:46.539Z,80.60
2018-01-17T08:16:46.522Z,80.69
2018-01-17T08:17:46.515Z,80.98
2018-01-17T08:18:46.501Z,80.32
2018-01-17T08:19:46.487Z,80.98
2018-01-17T08:20:46.476Z,81.07
2018-01-17T08:21:46.460Z,80.41
2018-01-17T08:22:46.452Z,80.41
2018-01-17T08:23:46.435Z,81.07
2018-01-17T08:24:46.419Z,81.07
2018-01-17T08:25:46.405Z,81.36
2018-01-17T08:26:46.415Z,80.98
2018-01-17T08:27:46.383Z,81.17
2018-01-17T08:28:46.375Z,80.69
2018-01-17T08:29:46.355Z,80.88
2018-01-17T08:30:46.343Z,80.98
2018-01-17T08:31:46.329Z,80.98
2018-01-17T08:32:46.324Z,80.98
2018-01-17T08:33:46.310Z,80.98
2018-01-17T08:34:46.284Z,80.60
2018-01-17T08:35:46.274Z,81.17
2018-01-17T08:36:46.264Z,81.26
2018-01-17T08:37:46.262Z,81.36
2018-01-17T08:38:46.239Z,81.07
2018-01-17T08:39:46.224Z,80.88
2018-01-17T08:40:46.209Z,81.26
2018-01-17T08:41:46.199Z,81.36
2018-01-17T08:42:46.184Z,80.98
2018-01-17T08:43:46.173Z,80.98
2018-01-17T08:44:46.158Z,81.13
2018-01-17T08:45:46.149Z,81.03
2018-01-17T08:46:46.132Z,81.17
2018-01-17T08:47:46.117Z,81.55
2018-01-17T08:48:46.105Z,81.60
2018-01-17T08:49:46.095Z,81.79
2018-01-17T08:50:46.078Z,81.74
2018-01-17T08:51:46.066Z,81.51
2018-01-17T08:52:46.061Z,82.07
2018-01-17T08:53:46.041Z,81.74
2018-01-17T08:54:46.028Z,81.93
2018-01-17T08:55:46.012Z,81.74
2018-01-17T08:56:46.003Z,81.83
2018-01-17T08:57:45.986Z,81.83
2018-01-17T08:58:45.984Z,81.83
2018-01-17T08:59:45.962Z,81.83
2018-01-17T09:00:45.946Z,81.74
2018-01-17T09:01:45.934Z,81.83
2018-01-17T09:02:45.919Z,81.74
2018-01-17T09:03:45.906Z,81.74
2018-01-17T09:04:45.901Z,81.64
2018-01-17T09:05:45.876Z,81.64
2018-01-17T09:06:45.867Z,81.55
2018-01-17T09:07:45.853Z,81.64
2018-01-17T09:08:45.847Z,81.74
2018-01-17T09:09:45.835Z,81.64
2018-01-17T09:10:45.812Z,81.64
2018-01-17T09:11:45.803Z,81.64
2018-01-17T09:12:45.811Z,81.64
2018-01-17T09:13:45.780Z,81.64
2018-01-17T09:14:48.596Z,81.83
2018-01-17T09:15:48.135Z,81.93
2018-01-17T09:16:45.818Z,81.93
2018-01-17T09:17:45.725Z,81.93
2018-01-17T09:18:45.714Z,81.74
2018-01-17T09:19:45.702Z,81.83
2018-01-17T09:20:45.687Z,81.74
2018-01-17T09:21:45.671Z,81.45
2018-01-17T09:22:45.660Z,81.74
2018-01-17T09:23:45.644Z,81.74
2018-01-17T09:24:45.638Z,81.07
2018-01-17T09:25:45.626Z,81.07
2018-01-17T09:26:45.609Z,81.17
2018-01-17T09:27:45.598Z,81.26
2018-01-17T09:28:45.628Z,80.98
2018-01-17T09:29:45.571Z,81.64
2018-01-17T09:30:45.557Z,81.17
2018-01-17T09:31:45.582Z,80.60
2018-01-17T09:32:45.533Z,81.07
2018-01-17T09:33:45.518Z,80.98
2018-01-17T09:34:45.504Z,80.98
2018-01-17T09:35:45.500Z,81.17
2018-01-17T09:36:45.476Z,81.26
2018-01-17T09:37:45.470Z,80.51
2018-01-17T09:38:45.459Z,81.17
2018-01-17T09:39:45.444Z,80.98
2018-01-17T09:40:45.430Z,80.98
2018-01-17T09:41:45.440Z,80.60
2018-01-17T09:42:45.406Z,81.26
2018-01-17T09:43:45.389Z,80.41
2018-01-17T09:44:45.380Z,80.51
2018-01-17T09:45:45.373Z,80.51
2018-01-17T09:46:45.353Z,80.60
2018-01-17T09:47:45.340Z,81.40
2018-01-17T09:48:45.327Z,80.45
2018-01-17T09:49:45.316Z,81.12
2018-01-17T09:50:45.308Z,81.21
2018-01-17T09:51:45.290Z,81.68
2018-01-17T09:52:45.280Z,81.59
2018-01-17T09:53:45.269Z,82.25
2018-01-17T09:54:45.255Z,82.91
2018-01-17T09:55:45.248Z,82.44
2018-01-17T09:56:45.233Z,81.68
2018-01-17T09:57:45.225Z,82.82
2018-01-17T09:58:45.237Z,84.05
2018-01-17T09:59:45.201Z,83.95
2018-01-17T10:00:45.189Z,83.76
2018-01-17T10:01:45.177Z,83.86
2018-01-17T10:02:45.168Z,85.28
2018-01-17T10:03:45.159Z,84.85
2018-01-17T10:04:45.141Z,85.70
2018-01-17T10:05:45.139Z,85.42
2018-01-17T10:06:45.126Z,87.40
2018-01-17T10:07:45.110Z,87.21
2018-01-17T10:08:45.101Z,86.27
2018-01-17T10:09:45.094Z,86.65
2018-01-17T10:10:45.081Z,85.89
2018-01-17T10:11:45.072Z,86.18
2018-01-17T10:12:45.058Z,86.65
2018-01-17T10:13:45.049Z,86.36
2018-01-17T10:14:45.039Z,87.27
2018-01-17T10:15:45.035Z,85.85
2018-01-17T10:16:45.015Z,85.66
2018-01-17T10:17:45.059Z,85.85
2018-01-17T10:18:45.000Z,85.75
2018-01-17T10:19:44.985Z,85.47
2018-01-17T10:20:44.984Z,85.38
2018-01-17T10:21:44.966Z,85.09
2018-01-17T10:22:44.953Z,85.09
2018-01-17T10:23:44.974Z,85.57
2018-01-17T10:24:44.932Z,84.23
2018-01-17T10:25:44.920Z,84.05
2018-01-17T10:26:44.917Z,84.81
2018-01-17T10:27:44.905Z,84.61
2018-01-17T10:28:44.887Z,83.58
2018-01-17T10:29:44.874Z,84.61
2018-01-17T10:30:44.866Z,84.71
2018-01-17T10:31:44.871Z,84.61
2018-01-17T10:32:44.844Z,84.90
2018-01-17T10:33:44.829Z,84.14
2018-01-17T10:34:44.820Z,84.05
2018-01-17T10:35:44.813Z,83.29
2018-01-17T10:36:44.802Z,83.29
2018-01-17T10:37:44.784Z,83.29
2018-01-17T10:38:44.774Z,85.57
2018-01-17T10:39:44.764Z,83.86
2018-01-17T10:40:44.766Z,83.71
2018-01-17T10:41:44.741Z,84.56
2018-01-17T10:42:44.769Z,84.75
2018-01-17T10:43:44.725Z,85.23
2018-01-17T10:44:44.710Z,85.23
2018-01-17T10:45:44.700Z,85.70
2018-01-17T10:46:44.695Z,87.69
2018-01-17T10:47:44.690Z,86.36
2018-01-17T10:48:44.670Z,86.93
2018-01-17T10:49:44.668Z,85.99
2018-01-17T10:50:44.650Z,85.42
2018-01-17T10:51:44.638Z,85.89
2018-01-17T10:52:44.632Z,85.42
2018-01-17T10:53:44.620Z,85.23
2018-01-17T10:54:44.613Z,84.56
2018-01-17T10:55:44.611Z,85.13
2018-01-17T10:56:44.594Z,85.70
2018-01-17T10:57:44.579Z,85.99
2018-01-17T10:58:44.570Z,87.69
2018-01-17T10:59:44.563Z,86.83
2018-01-17T11:00:44.556Z,86.18
2018-01-17T11:01:44.539Z,86.36
2018-01-17T11:02:44.536Z,86.08
2018-01-17T11:03:44.529Z,85.80
2018-01-17T11:04:44.523Z,85.32
2018-01-17T11:05:44.503Z,85.32
2018-01-17T11:06:44.490Z,85.42
2018-01-17T11:07:44.480Z,85.51
2018-01-17T11:08:44.478Z,85.32
2018-01-17T11:09:44.469Z,85.42
2018-01-17T11:10:44.451Z,84.94
2018-01-17T11:11:44.447Z,85.61
2018-01-17T11:12:44.435Z,84.75
2018-01-17T11:13:44.422Z,84.66
2018-01-17T11:14:44.409Z,84.85
2018-01-17T11:15:44.404Z,85.13
2018-01-17T11:16:44.382Z,85.42
2018-01-17T11:17:44.373Z,84.66
2018-01-17T11:18:44.369Z,84.09
2018-01-17T11:19:44.361Z,84.75
2018-01-17T11:20:44.346Z,83.24
2018-01-17T11:21:44.336Z,83.90
2018-01-17T11:22:44.345Z,83.81
2018-01-17T11:23:44.354Z,83.48
2018-01-17T11:24:44.321Z,83.39
2018-01-17T11:25:44.296Z,83.95
2018-01-17T11:26:44.283Z,83.86
2018-01-17T11:27:44.266Z,83.39
2018-01-17T11:28:44.269Z,83.52
2018-01-17T11:29:44.251Z,82.82
2018-01-17T11:30:44.237Z,82.82
2018-01-17T11:31:44.235Z,83.58
2018-01-17T11:32:44.240Z,82.82
2018-01-17T11:33:44.201Z,83.48
2018-01-17T11:34:44.187Z,83.01
2018-01-17T11:35:44.180Z,82.82
2018-01-17T11:36:44.158Z,82.82
2018-01-17T11:37:44.153Z,82.53
2018-01-17T11:38:44.146Z,82.34
2018-01-17T11:39:44.132Z,82.72
2018-01-17T11:40:44.117Z,82.53
2018-01-17T11:41:44.107Z,82.72
2018-01-17T11:42:44.096Z,82.67
2018-01-17T11:43:44.087Z,82.53
2018-01-17T11:44:44.071Z,82.15
2018-01-17T11:45:44.074Z,82.39
2018-01-17T11:46:44.050Z,82.48
2018-01-17T11:47:44.034Z,83.10
2018-01-17T11:48:44.024Z,82.53
2018-01-17T11:49:44.013Z,82.86
2018-01-17T11:50:44.004Z,82.82
2018-01-17T11:51:43.988Z,82.76
2018-01-17T11:52:43.983Z,82.20
2018-01-17T11:53:43.966Z,83.71
2018-01-17T11:54:43.955Z,83.81
2018-01-17T11:55:43.951Z,82.95
2018-01-17T11:56:43.939Z,82.67
2018-01-17T11:57:43.915Z,82.10
2018-01-17T11:58:43.909Z,82.95
2018-01-17T11:59:43.900Z,82.67
2018-01-17T12:00:43.884Z,82.67
2018-01-17T12:01:43.873Z,83.14
2018-01-17T12:02:43.890Z,82.76
2018-01-17T12:03:43.845Z,82.86
2018-01-17T12:04:43.835Z,82.72
2018-01-17T12:05:43.830Z,82.86
2018-01-17T12:06:43.812Z,82.20
2018-01-17T12:07:43.796Z,83.05
2018-01-17T12:08:43.788Z,82.86
2018-01-17T12:09:43.780Z,82.57
2018-01-17T12:10:43.767Z,82.29
2018-01-17T12:11:43.751Z,82.48
2018-01-17T12:12:43.741Z,82.39
2018-01-17T12:13:43.725Z,82.82
2018-01-17T12:14:43.718Z,82.72
2018-01-17T12:15:43.708Z,82.39
2018-01-17T12:16:43.694Z,82.10
2018-01-17T12:17:43.706Z,81.49
2018-01-17T12:18:43.669Z,82.63
2018-01-17T12:19:43.655Z,82.20
2018-01-17T12:20:43.646Z,82.72
2018-01-17T12:21:43.633Z,82.39
2018-01-17T12:22:43.629Z,81.59
2018-01-17T12:23:43.612Z,81.72
2018-01-17T12:24:43.602Z,82.01
2018-01-17T12:25:43.593Z,82.10
2018-01-17T12:26:43.577Z,81.59
2018-01-17T12:27:43.587Z,82.34
2018-01-17T12:28:43.551Z,81.92
2018-01-17T12:29:43.537Z,81.63
2018-01-17T12:30:43.525Z,81.68
2018-01-17T12:31:43.513Z,81.72
2018-01-17T12:32:43.501Z,81.59
2018-01-17T12:33:43.500Z,81.02
2018-01-17T12:34:43.480Z,80.74
2018-01-17T12:35:43.467Z,81.02
2018-01-17T12:36:43.460Z,80.83
2018-01-17T12:37:43.442Z,80.17
2018-01-17T12:38:43.429Z,80.83
2018-01-17T12:39:43.415Z,80.93
2018-01-17T12:40:43.410Z,81.12
2018-01-17T12:41:43.397Z,81.49
2018-01-17T12:42:43.375Z,80.74
2018-01-17T12:43:43.367Z,81.02
2018-01-17T12:44:43.352Z,81.02
2018-01-17T12:45:43.343Z,81.02
2018-01-17T12:46:43.326Z,81.21
2018-01-17T12:47:43.317Z,80.74
2018-01-17T12:48:43.302Z,80.55
2018-01-17T12:49:43.296Z,80.45
2018-01-17T12:50:43.278Z,80.45
2018-01-17T12:51:43.263Z,80.74
2018-01-17T12:52:43.253Z,80.36